sensor_id;sensor_type;location;lat;lon;timestamp;temperature;humidity
37410;DHT22;23275;48.914;12.566;2022-07-10T00:02:12;15.80;99.90
37410;DHT22;23275;48.914;12.566;2022-07-10T00:04:37;15.80;99.90
37410;DHT22;23275;48.914;12.566;2022-07-10T00:07:03;15.80;99.90
37410;DHT22;23275;48.914;12.566;2022-07-10T00:09:29;15.70;99.90
37410;DHT22;23275;48.914;12.566;2022-07-10T00:11:56;15.70;99.90
37410;DHT22;23275;48.914;12.566;2022-07-10T00:14:21;15.70;99.90
37410;DHT22;23275;48.914;12.566;2022-07-10T00:16:47;15.70;99.90
37410;DHT22;23275;48.914;12.566;2022-07-10T00:19:13;15.70;99.90
37410;DHT22;23275;48.914;12.566;2022-07-10T00:21:38;15.70;99.90
37410;DHT22;23275;48.914;12.566;2022-07-10T00:24:04;15.70;99.90
37410;DHT22;23275;48.914;12.566;2022-07-10T00:26:30;15.60;99.90
37410;DHT22;23275;48.914;12.566;2022-07-10T00:28:56;15.60;99.90
37410;DHT22;23275;48.914;12.566;2022-07-10T00:31:22;15.60;99.90
37410;DHT22;23275;48.914;12.566;2022-07-10T00:33:47;15.50;99.90
37410;DHT22;23275;48.914;12.566;2022-07-10T00:36:16;15.50;99.90
37410;DHT22;23275;48.914;12.566;2022-07-10T00:38:42;15.50;99.90
37410;DHT22;23275;48.914;12.566;2022-07-10T00:41:08;15.50;99.90
37410;DHT22;23275;48.914;12.566;2022-07-10T00:46:18;15.40;99.90
37410;DHT22;23275;48.914;12.566;2022-07-10T00:48:48;15.40;99.90
37410;DHT22;23275;48.914;12.566;2022-07-10T00:51:17;15.40;99.90
37410;DHT22;23275;48.914;12.566;2022-07-10T00:53:45;15.40;99.90
37410;DHT22;23275;48.914;12.566;2022-07-10T00:56:11;15.40;99.90
37410;DHT22;23275;48.914;12.566;2022-07-10T00:58:37;15.40;99.90
37410;DHT22;23275;48.914;12.566;2022-07-10T01:01:05;15.40;99.90
37410;DHT22;23275;48.914;12.566;2022-07-10T01:03:31;15.40;99.90
37410;DHT22;23275;48.914;12.566;2022-07-10T01:05:57;15.40;99.90
37410;DHT22;23275;48.914;12.566;2022-07-10T01:08:23;15.50;99.90
37410;DHT22;23275;48.914;12.566;2022-07-10T01:10:49;15.50;99.90
37410;DHT22;23275;48.914;12.566;2022-07-10T01:13:15;15.50;99.90
37410;DHT22;23275;48.914;12.566;2022-07-10T01:15:41;15.50;99.90
37410;DHT22;23275;48.914;12.566;2022-07-10T01:18:07;15.50;99.90
37410;DHT22;23275;48.914;12.566;2022-07-10T01:20:33;15.50;99.90
37410;DHT22;23275;48.914;12.566;2022-07-10T01:22:59;15.50;99.90
37410;DHT22;23275;48.914;12.566;2022-07-10T01:25:25;15.50;99.90
37410;DHT22;23275;48.914;12.566;2022-07-10T01:27:51;15.50;99.90
37410;DHT22;23275;48.914;12.566;2022-07-10T01:30:17;15.50;99.90
37410;DHT22;23275;48.914;12.566;2022-07-10T01:32:46;15.40;99.90
37410;DHT22;23275;48.914;12.566;2022-07-10T01:35:13;15.40;99.90
37410;DHT22;23275;48.914;12.566;2022-07-10T01:37:40;15.40;99.90
37410;DHT22;23275;48.914;12.566;2022-07-10T01:40:06;15.40;99.90
37410;DHT22;23275;48.914;12.566;2022-07-10T01:42:32;15.40;99.90
37410;DHT22;23275;48.914;12.566;2022-07-10T01:44:58;15.40;99.90
37410;DHT22;23275;48.914;12.566;2022-07-10T01:47:24;15.30;99.90
37410;DHT22;23275;48.914;12.566;2022-07-10T01:49:52;15.30;99.90
37410;DHT22;23275;48.914;12.566;2022-07-10T01:52:19;15.20;99.90
37410;DHT22;23275;48.914;12.566;2022-07-10T01:54:45;15.20;99.90
37410;DHT22;23275;48.914;12.566;2022-07-10T01:57:10;15.20;99.90
37410;DHT22;23275;48.914;12.566;2022-07-10T01:59:36;15.20;99.90
37410;DHT22;23275;48.914;12.566;2022-07-10T02:02:02;15.20;99.90
37410;DHT22;23275;48.914;12.566;2022-07-10T02:04:27;15.20;99.90
37410;DHT22;23275;48.914;12.566;2022-07-10T02:07:08;15.20;99.90
37410;DHT22;23275;48.914;12.566;2022-07-10T02:09:35;15.20;99.90
37410;DHT22;23275;48.914;12.566;2022-07-10T02:12:01;15.20;99.90
37410;DHT22;23275;48.914;12.566;2022-07-10T02:14:27;15.10;99.90
37410;DHT22;23275;48.914;12.566;2022-07-10T02:16:53;15.10;99.90
37410;DHT22;23275;48.914;12.566;2022-07-10T02:19:19;15.10;99.90
37410;DHT22;23275;48.914;12.566;2022-07-10T02:21:44;15.10;99.90
37410;DHT22;23275;48.914;12.566;2022-07-10T02:24:11;15.10;99.90
37410;DHT22;23275;48.914;12.566;2022-07-10T02:26:37;15.10;99.90
37410;DHT22;23275;48.914;12.566;2022-07-10T02:29:03;15.10;99.90
37410;DHT22;23275;48.914;12.566;2022-07-10T02:31:28;15.00;99.90
37410;DHT22;23275;48.914;12.566;2022-07-10T02:33:54;15.00;99.90
37410;DHT22;23275;48.914;12.566;2022-07-10T02:36:19;14.90;99.90
37410;DHT22;23275;48.914;12.566;2022-07-10T02:38:45;14.80;99.90
37410;DHT22;23275;48.914;12.566;2022-07-10T02:41:10;14.80;99.90
37410;DHT22;23275;48.914;12.566;2022-07-10T02:43:36;14.80;99.90
37410;DHT22;23275;48.914;12.566;2022-07-10T02:46:02;14.80;99.90
37410;DHT22;23275;48.914;12.566;2022-07-10T02:48:28;14.70;99.90
37410;DHT22;23275;48.914;12.566;2022-07-10T02:50:54;14.70;99.90
37410;DHT22;23275;48.914;12.566;2022-07-10T02:53:19;14.60;99.90
37410;DHT22;23275;48.914;12.566;2022-07-10T02:55:45;14.60;99.90
37410;DHT22;23275;48.914;12.566;2022-07-10T02:58:11;14.60;99.90
37410;DHT22;23275;48.914;12.566;2022-07-10T03:00:37;14.60;99.90
37410;DHT22;23275;48.914;12.566;2022-07-10T03:03:03;14.60;99.90
37410;DHT22;23275;48.914;12.566;2022-07-10T03:05:28;14.70;99.90
37410;DHT22;23275;48.914;12.566;2022-07-10T03:07:54;14.70;99.90
37410;DHT22;23275;48.914;12.566;2022-07-10T03:10:20;14.70;99.90
37410;DHT22;23275;48.914;12.566;2022-07-10T03:12:46;14.70;99.90
37410;DHT22;23275;48.914;12.566;2022-07-10T03:15:13;14.70;99.90
37410;DHT22;23275;48.914;12.566;2022-07-10T03:17:38;14.70;99.90
37410;DHT22;23275;48.914;12.566;2022-07-10T03:20:06;14.60;99.90
37410;DHT22;23275;48.914;12.566;2022-07-10T03:22:32;14.60;99.90
37410;DHT22;23275;48.914;12.566;2022-07-10T03:24:58;14.60;99.90
37410;DHT22;23275;48.914;12.566;2022-07-10T03:27:24;14.50;99.90
37410;DHT22;23275;48.914;12.566;2022-07-10T03:29:49;14.60;99.90
37410;DHT22;23275;48.914;12.566;2022-07-10T03:32:15;14.60;99.90
37410;DHT22;23275;48.914;12.566;2022-07-10T03:34:41;14.60;99.90
37410;DHT22;23275;48.914;12.566;2022-07-10T03:37:06;14.70;99.90
37410;DHT22;23275;48.914;12.566;2022-07-10T03:39:32;14.70;99.90
37410;DHT22;23275;48.914;12.566;2022-07-10T03:41:58;14.70;99.90
37410;DHT22;23275;48.914;12.566;2022-07-10T03:44:24;14.70;99.90
37410;DHT22;23275;48.914;12.566;2022-07-10T03:46:49;14.70;99.90
37410;DHT22;23275;48.914;12.566;2022-07-10T03:49:15;14.70;99.90
37410;DHT22;23275;48.914;12.566;2022-07-10T03:51:41;14.70;99.90
37410;DHT22;23275;48.914;12.566;2022-07-10T03:54:07;14.70;99.90
37410;DHT22;23275;48.914;12.566;2022-07-10T03:56:32;14.70;99.90
37410;DHT22;23275;48.914;12.566;2022-07-10T03:59:16;14.70;99.90
37410;DHT22;23275;48.914;12.566;2022-07-10T04:01:42;14.70;99.90
37410;DHT22;23275;48.914;12.566;2022-07-10T04:04:08;14.70;99.90
37410;DHT22;23275;48.914;12.566;2022-07-10T04:06:33;14.70;99.90
37410;DHT22;23275;48.914;12.566;2022-07-10T04:08:59;14.70;99.90
37410;DHT22;23275;48.914;12.566;2022-07-10T04:11:24;14.80;99.90
37410;DHT22;23275;48.914;12.566;2022-07-10T04:13:50;14.80;99.90
37410;DHT22;23275;48.914;12.566;2022-07-10T04:16:15;14.80;99.90
37410;DHT22;23275;48.914;12.566;2022-07-10T04:18:41;14.70;99.90
37410;DHT22;23275;48.914;12.566;2022-07-10T04:21:07;14.70;99.90
37410;DHT22;23275;48.914;12.566;2022-07-10T04:23:33;14.70;99.90
37410;DHT22;23275;48.914;12.566;2022-07-10T04:25:59;14.80;99.90
37410;DHT22;23275;48.914;12.566;2022-07-10T04:28:25;14.70;99.90
37410;DHT22;23275;48.914;12.566;2022-07-10T04:30:51;14.80;99.90
37410;DHT22;23275;48.914;12.566;2022-07-10T04:33:16;14.90;99.90
37410;DHT22;23275;48.914;12.566;2022-07-10T04:35:42;14.90;99.90
37410;DHT22;23275;48.914;12.566;2022-07-10T04:38:08;15.00;99.90
37410;DHT22;23275;48.914;12.566;2022-07-10T04:40:33;15.00;99.90
37410;DHT22;23275;48.914;12.566;2022-07-10T04:42:59;15.00;99.90
37410;DHT22;23275;48.914;12.566;2022-07-10T04:45:25;15.10;99.90
37410;DHT22;23275;48.914;12.566;2022-07-10T04:47:51;15.10;99.90
37410;DHT22;23275;48.914;12.566;2022-07-10T04:50:17;15.10;99.90
37410;DHT22;23275;48.914;12.566;2022-07-10T04:52:43;15.10;99.90
37410;DHT22;23275;48.914;12.566;2022-07-10T04:55:09;15.20;99.90
37410;DHT22;23275;48.914;12.566;2022-07-10T04:57:34;15.20;99.90
37410;DHT22;23275;48.914;12.566;2022-07-10T05:00:00;15.20;99.90
37410;DHT22;23275;48.914;12.566;2022-07-10T05:02:26;15.30;99.90
37410;DHT22;23275;48.914;12.566;2022-07-10T05:04:51;15.30;99.90
37410;DHT22;23275;48.914;12.566;2022-07-10T05:07:17;15.30;99.90
37410;DHT22;23275;48.914;12.566;2022-07-10T05:09:43;15.40;99.90
37410;DHT22;23275;48.914;12.566;2022-07-10T05:12:09;15.50;99.90
37410;DHT22;23275;48.914;12.566;2022-07-10T05:14:34;15.60;99.90
37410;DHT22;23275;48.914;12.566;2022-07-10T05:17:00;15.70;99.90
37410;DHT22;23275;48.914;12.566;2022-07-10T05:19:26;15.70;99.90
37410;DHT22;23275;48.914;12.566;2022-07-10T05:21:51;15.70;99.90
37410;DHT22;23275;48.914;12.566;2022-07-10T05:24:17;15.70;99.90
37410;DHT22;23275;48.914;12.566;2022-07-10T05:26:42;15.90;99.90
37410;DHT22;23275;48.914;12.566;2022-07-10T05:29:08;16.10;99.90
37410;DHT22;23275;48.914;12.566;2022-07-10T05:31:34;16.20;99.90
37410;DHT22;23275;48.914;12.566;2022-07-10T05:33:59;16.30;99.90
37410;DHT22;23275;48.914;12.566;2022-07-10T05:36:25;16.30;99.90
37410;DHT22;23275;48.914;12.566;2022-07-10T05:38:51;16.30;99.90
37410;DHT22;23275;48.914;12.566;2022-07-10T05:41:16;16.20;99.90
37410;DHT22;23275;48.914;12.566;2022-07-10T05:43:42;16.20;99.90
37410;DHT22;23275;48.914;12.566;2022-07-10T05:46:07;16.10;99.90
37410;DHT22;23275;48.914;12.566;2022-07-10T05:48:33;16.10;99.90
37410;DHT22;23275;48.914;12.566;2022-07-10T05:50:59;16.00;99.90
37410;DHT22;23275;48.914;12.566;2022-07-10T05:53:24;16.00;99.90
37410;DHT22;23275;48.914;12.566;2022-07-10T05:55:50;16.10;99.90
37410;DHT22;23275;48.914;12.566;2022-07-10T05:58:16;16.20;99.90
37410;DHT22;23275;48.914;12.566;2022-07-10T06:00:42;16.20;99.90
37410;DHT22;23275;48.914;12.566;2022-07-10T06:03:11;16.30;99.90
37410;DHT22;23275;48.914;12.566;2022-07-10T06:05:37;16.50;99.90
37410;DHT22;23275;48.914;12.566;2022-07-10T06:08:03;16.60;99.90
37410;DHT22;23275;48.914;12.566;2022-07-10T06:10:29;16.70;99.90
37410;DHT22;23275;48.914;12.566;2022-07-10T06:12:54;16.80;99.90
37410;DHT22;23275;48.914;12.566;2022-07-10T06:15:20;17.00;99.90
37410;DHT22;23275;48.914;12.566;2022-07-10T06:17:46;17.20;99.90
37410;DHT22;23275;48.914;12.566;2022-07-10T06:20:11;17.50;99.90
37410;DHT22;23275;48.914;12.566;2022-07-10T06:22:37;17.50;99.90
37410;DHT22;23275;48.914;12.566;2022-07-10T06:25:05;17.50;99.90
37410;DHT22;23275;48.914;12.566;2022-07-10T06:27:31;17.40;99.90
37410;DHT22;23275;48.914;12.566;2022-07-10T06:29:58;17.20;99.90
37410;DHT22;23275;48.914;12.566;2022-07-10T06:32:24;17.30;99.90
37410;DHT22;23275;48.914;12.566;2022-07-10T06:34:53;17.30;99.90
37410;DHT22;23275;48.914;12.566;2022-07-10T06:37:20;17.40;99.90
37410;DHT22;23275;48.914;12.566;2022-07-10T06:39:46;17.40;99.90
37410;DHT22;23275;48.914;12.566;2022-07-10T06:42:15;17.20;99.90
37410;DHT22;23275;48.914;12.566;2022-07-10T06:44:44;17.30;99.90
37410;DHT22;23275;48.914;12.566;2022-07-10T06:47:11;17.20;99.90
37410;DHT22;23275;48.914;12.566;2022-07-10T06:49:56;17.20;99.90
37410;DHT22;23275;48.914;12.566;2022-07-10T06:52:23;17.20;99.90
37410;DHT22;23275;48.914;12.566;2022-07-10T06:54:49;17.20;99.90
37410;DHT22;23275;48.914;12.566;2022-07-10T06:57:15;17.10;99.90
37410;DHT22;23275;48.914;12.566;2022-07-10T06:59:40;17.20;99.90
37410;DHT22;23275;48.914;12.566;2022-07-10T07:02:06;17.40;99.90
37410;DHT22;23275;48.914;12.566;2022-07-10T07:04:32;17.50;99.90
37410;DHT22;23275;48.914;12.566;2022-07-10T07:06:58;17.60;99.90
37410;DHT22;23275;48.914;12.566;2022-07-10T07:09:23;17.60;99.90
37410;DHT22;23275;48.914;12.566;2022-07-10T07:11:49;17.70;99.90
37410;DHT22;23275;48.914;12.566;2022-07-10T07:14:15;17.60;99.90
37410;DHT22;23275;48.914;12.566;2022-07-10T07:16:40;17.90;99.90
37410;DHT22;23275;48.914;12.566;2022-07-10T07:19:11;18.30;99.90
37410;DHT22;23275;48.914;12.566;2022-07-10T07:21:42;18.80;99.90
37410;DHT22;23275;48.914;12.566;2022-07-10T07:24:27;18.90;99.90
37410;DHT22;23275;48.914;12.566;2022-07-10T07:26:52;18.80;99.90
37410;DHT22;23275;48.914;12.566;2022-07-10T07:29:18;18.90;99.90
37410;DHT22;23275;48.914;12.566;2022-07-10T07:31:44;18.90;99.90
37410;DHT22;23275;48.914;12.566;2022-07-10T07:34:10;18.70;99.90
37410;DHT22;23275;48.914;12.566;2022-07-10T07:36:36;18.60;99.90
37410;DHT22;23275;48.914;12.566;2022-07-10T07:39:03;18.30;99.90
37410;DHT22;23275;48.914;12.566;2022-07-10T07:41:28;18.10;99.90
37410;DHT22;23275;48.914;12.566;2022-07-10T07:43:54;17.80;99.90
37410;DHT22;23275;48.914;12.566;2022-07-10T07:46:19;17.70;99.90
37410;DHT22;23275;48.914;12.566;2022-07-10T07:48:45;17.40;99.90
37410;DHT22;23275;48.914;12.566;2022-07-10T07:51:11;17.30;99.90
37410;DHT22;23275;48.914;12.566;2022-07-10T07:53:37;17.10;99.90
37410;DHT22;23275;48.914;12.566;2022-07-10T07:56:03;17.10;99.90
37410;DHT22;23275;48.914;12.566;2022-07-10T07:58:28;17.10;99.90
37410;DHT22;23275;48.914;12.566;2022-07-10T08:00:55;17.00;99.90
37410;DHT22;23275;48.914;12.566;2022-07-10T08:03:22;16.90;99.90
37410;DHT22;23275;48.914;12.566;2022-07-10T08:05:48;17.00;99.90
37410;DHT22;23275;48.914;12.566;2022-07-10T08:08:15;17.20;99.90
37410;DHT22;23275;48.914;12.566;2022-07-10T08:10:41;17.70;99.90
37410;DHT22;23275;48.914;12.566;2022-07-10T08:13:06;18.30;99.90
37410;DHT22;23275;48.914;12.566;2022-07-10T08:15:32;18.70;99.90
37410;DHT22;23275;48.914;12.566;2022-07-10T08:18:00;19.10;99.90
37410;DHT22;23275;48.914;12.566;2022-07-10T08:20:27;19.40;99.90
37410;DHT22;23275;48.914;12.566;2022-07-10T08:22:53;19.50;99.90
37410;DHT22;23275;48.914;12.566;2022-07-10T08:25:19;19.70;99.90
37410;DHT22;23275;48.914;12.566;2022-07-10T08:27:45;19.80;99.90
37410;DHT22;23275;48.914;12.566;2022-07-10T08:30:11;20.20;99.90
37410;DHT22;23275;48.914;12.566;2022-07-10T08:32:40;20.70;99.90
37410;DHT22;23275;48.914;12.566;2022-07-10T08:35:08;21.10;99.90
37410;DHT22;23275;48.914;12.566;2022-07-10T08:37:41;21.50;99.90
37410;DHT22;23275;48.914;12.566;2022-07-10T08:40:11;22.00;99.90
37410;DHT22;23275;48.914;12.566;2022-07-10T08:42:38;22.10;99.90
37410;DHT22;23275;48.914;12.566;2022-07-10T08:45:04;22.10;99.90
37410;DHT22;23275;48.914;12.566;2022-07-10T08:47:31;21.90;99.90
37410;DHT22;23275;48.914;12.566;2022-07-10T08:49:59;21.90;99.90
37410;DHT22;23275;48.914;12.566;2022-07-10T08:52:27;22.10;99.90
37410;DHT22;23275;48.914;12.566;2022-07-10T08:54:56;22.30;99.90
37410;DHT22;23275;48.914;12.566;2022-07-10T08:57:26;22.50;99.90
37410;DHT22;23275;48.914;12.566;2022-07-10T08:59:52;22.80;99.90
37410;DHT22;23275;48.914;12.566;2022-07-10T09:02:19;23.20;99.90
37410;DHT22;23275;48.914;12.566;2022-07-10T09:04:45;23.50;99.90
37410;DHT22;23275;48.914;12.566;2022-07-10T09:07:11;22.80;99.70
37410;DHT22;23275;48.914;12.566;2022-07-10T09:09:54;22.10;99.90
37410;DHT22;23275;48.914;12.566;2022-07-10T09:12:21;21.40;99.90
37410;DHT22;23275;48.914;12.566;2022-07-10T09:14:46;20.90;99.90
37410;DHT22;23275;48.914;12.566;2022-07-10T09:17:12;20.50;99.90
37410;DHT22;23275;48.914;12.566;2022-07-10T09:19:39;19.90;99.90
37410;DHT22;23275;48.914;12.566;2022-07-10T09:22:09;19.50;99.90
37410;DHT22;23275;48.914;12.566;2022-07-10T09:24:45;20.00;99.90
37410;DHT22;23275;48.914;12.566;2022-07-10T09:27:14;20.70;99.90
37410;DHT22;23275;48.914;12.566;2022-07-10T09:29:51;20.80;99.90
37410;DHT22;23275;48.914;12.566;2022-07-10T09:32:21;20.70;99.90
37410;DHT22;23275;48.914;12.566;2022-07-10T09:34:48;21.30;99.90
37410;DHT22;23275;48.914;12.566;2022-07-10T09:37:22;21.60;99.90
37410;DHT22;23275;48.914;12.566;2022-07-10T09:39:54;22.40;99.90
37410;DHT22;23275;48.914;12.566;2022-07-10T09:42:42;23.40;99.90
37410;DHT22;23275;48.914;12.566;2022-07-10T09:52:46;24.30;98.30
37410;DHT22;23275;48.914;12.566;2022-07-10T09:55:14;24.10;98.20
37410;DHT22;23275;48.914;12.566;2022-07-10T09:57:40;24.50;97.80
37410;DHT22;23275;48.914;12.566;2022-07-10T10:00:08;24.10;96.90
37410;DHT22;23275;48.914;12.566;2022-07-10T10:02:35;24.50;96.80
37410;DHT22;23275;48.914;12.566;2022-07-10T10:05:03;24.40;93.80
37410;DHT22;23275;48.914;12.566;2022-07-10T10:07:29;24.10;94.60
37410;DHT22;23275;48.914;12.566;2022-07-10T10:09:58;24.20;93.50
37410;DHT22;23275;48.914;12.566;2022-07-10T10:12:35;24.70;91.90
37410;DHT22;23275;48.914;12.566;2022-07-10T10:15:06;25.30;90.80
37410;DHT22;23275;48.914;12.566;2022-07-10T10:17:34;26.00;92.10
37410;DHT22;23275;48.914;12.566;2022-07-10T10:20:01;26.90;86.20
37410;DHT22;23275;48.914;12.566;2022-07-10T10:22:48;27.30;81.60
37410;DHT22;23275;48.914;12.566;2022-07-10T10:25:16;27.80;81.40
37410;DHT22;23275;48.914;12.566;2022-07-10T10:27:43;28.00;74.60
37410;DHT22;23275;48.914;12.566;2022-07-10T10:30:09;27.50;74.00
37410;DHT22;23275;48.914;12.566;2022-07-10T10:32:40;27.50;76.30
37410;DHT22;23275;48.914;12.566;2022-07-10T10:35:06;27.90;76.00
37410;DHT22;23275;48.914;12.566;2022-07-10T10:37:38;28.50;72.60
37410;DHT22;23275;48.914;12.566;2022-07-10T10:40:08;29.10;69.60
37410;DHT22;23275;48.914;12.566;2022-07-10T10:42:42;28.80;71.00
37410;DHT22;23275;48.914;12.566;2022-07-10T10:45:31;28.00;70.20
37410;DHT22;23275;48.914;12.566;2022-07-10T10:48:07;27.40;71.60
37410;DHT22;23275;48.914;12.566;2022-07-10T10:50:46;27.30;71.80
37410;DHT22;23275;48.914;12.566;2022-07-10T10:53:20;27.70;72.20
37410;DHT22;23275;48.914;12.566;2022-07-10T10:58:39;28.20;66.40
37410;DHT22;23275;48.914;12.566;2022-07-10T11:01:23;27.20;65.70
37410;DHT22;23275;48.914;12.566;2022-07-10T11:06:48;25.70;72.40
37410;DHT22;23275;48.914;12.566;2022-07-10T11:09:31;25.70;69.80
37410;DHT22;23275;48.914;12.566;2022-07-10T11:12:08;26.10;69.00
37410;DHT22;23275;48.914;12.566;2022-07-10T11:14:47;26.10;69.80
37410;DHT22;23275;48.914;12.566;2022-07-10T11:17:17;25.70;70.80
37410;DHT22;23275;48.914;12.566;2022-07-10T11:19:43;25.40;70.70
37410;DHT22;23275;48.914;12.566;2022-07-10T11:22:42;24.50;71.50
37410;DHT22;23275;48.914;12.566;2022-07-10T11:25:39;24.40;75.30
37410;DHT22;23275;48.914;12.566;2022-07-10T11:28:09;25.20;72.70
37410;DHT22;23275;48.914;12.566;2022-07-10T11:30:54;24.80;73.20
37410;DHT22;23275;48.914;12.566;2022-07-10T11:33:21;24.20;75.90
37410;DHT22;23275;48.914;12.566;2022-07-10T11:35:49;23.70;74.30
37410;DHT22;23275;48.914;12.566;2022-07-10T11:38:26;23.40;77.80
37410;DHT22;23275;48.914;12.566;2022-07-10T11:40:52;23.10;76.10
37410;DHT22;23275;48.914;12.566;2022-07-10T11:43:21;23.50;76.60
37410;DHT22;23275;48.914;12.566;2022-07-10T11:45:49;23.70;78.90
37410;DHT22;23275;48.914;12.566;2022-07-10T11:48:20;23.60;77.70
37410;DHT22;23275;48.914;12.566;2022-07-10T11:50:47;23.30;75.90
37410;DHT22;23275;48.914;12.566;2022-07-10T11:53:13;23.10;79.60
37410;DHT22;23275;48.914;12.566;2022-07-10T11:55:39;23.10;78.70
37410;DHT22;23275;48.914;12.566;2022-07-10T11:58:19;22.90;78.70
37410;DHT22;23275;48.914;12.566;2022-07-10T12:00:59;22.70;77.10
37410;DHT22;23275;48.914;12.566;2022-07-10T12:03:25;22.40;77.80
37410;DHT22;23275;48.914;12.566;2022-07-10T12:05:51;22.20;78.80
37410;DHT22;23275;48.914;12.566;2022-07-10T12:08:17;22.00;78.80
37410;DHT22;23275;48.914;12.566;2022-07-10T12:10:43;21.70;79.10
37410;DHT22;23275;48.914;12.566;2022-07-10T12:13:11;21.60;81.10
37410;DHT22;23275;48.914;12.566;2022-07-10T12:15:44;21.70;80.00
37410;DHT22;23275;48.914;12.566;2022-07-10T12:18:17;21.60;80.30
37410;DHT22;23275;48.914;12.566;2022-07-10T12:20:43;21.50;81.20
37410;DHT22;23275;48.914;12.566;2022-07-10T12:23:11;21.40;81.10
37410;DHT22;23275;48.914;12.566;2022-07-10T12:25:40;21.40;82.90
37410;DHT22;23275;48.914;12.566;2022-07-10T12:28:06;21.40;81.30
37410;DHT22;23275;48.914;12.566;2022-07-10T12:30:46;21.20;82.30
37410;DHT22;23275;48.914;12.566;2022-07-10T12:33:16;21.10;82.90
37410;DHT22;23275;48.914;12.566;2022-07-10T12:35:47;21.10;81.90
37410;DHT22;23275;48.914;12.566;2022-07-10T12:38:27;21.20;82.70
37410;DHT22;23275;48.914;12.566;2022-07-10T12:41:10;21.50;83.30
37410;DHT22;23275;48.914;12.566;2022-07-10T12:43:37;21.70;82.90
37410;DHT22;23275;48.914;12.566;2022-07-10T12:46:12;21.70;80.20
37410;DHT22;23275;48.914;12.566;2022-07-10T12:48:43;21.70;80.70
37410;DHT22;23275;48.914;12.566;2022-07-10T12:51:23;21.40;80.00
37410;DHT22;23275;48.914;12.566;2022-07-10T12:53:49;21.10;82.10
37410;DHT22;23275;48.914;12.566;2022-07-10T12:58:53;20.70;83.50
37410;DHT22;23275;48.914;12.566;2022-07-10T13:01:19;20.70;85.20
37410;DHT22;23275;48.914;12.566;2022-07-10T13:03:44;20.90;84.90
37410;DHT22;23275;48.914;12.566;2022-07-10T13:06:30;21.10;84.70
37410;DHT22;23275;48.914;12.566;2022-07-10T13:08:57;21.00;83.40
37410;DHT22;23275;48.914;12.566;2022-07-10T13:11:23;20.90;83.10
37410;DHT22;23275;48.914;12.566;2022-07-10T13:13:50;20.70;81.60
37410;DHT22;23275;48.914;12.566;2022-07-10T13:16:16;20.70;83.10
37410;DHT22;23275;48.914;12.566;2022-07-10T13:18:42;20.90;85.10
37410;DHT22;23275;48.914;12.566;2022-07-10T13:21:09;21.20;84.20
37410;DHT22;23275;48.914;12.566;2022-07-10T13:23:36;21.20;83.10
37410;DHT22;23275;48.914;12.566;2022-07-10T13:26:04;21.10;83.30
37410;DHT22;23275;48.914;12.566;2022-07-10T13:28:29;21.10;83.90
37410;DHT22;23275;48.914;12.566;2022-07-10T13:30:55;21.10;84.20
37410;DHT22;23275;48.914;12.566;2022-07-10T13:33:21;21.10;82.70
37410;DHT22;23275;48.914;12.566;2022-07-10T13:35:48;20.90;84.50
37410;DHT22;23275;48.914;12.566;2022-07-10T13:38:14;21.00;84.90
37410;DHT22;23275;48.914;12.566;2022-07-10T13:40:42;21.00;83.80
37410;DHT22;23275;48.914;12.566;2022-07-10T13:43:09;21.10;84.30
37410;DHT22;23275;48.914;12.566;2022-07-10T13:45:35;21.10;81.60
37410;DHT22;23275;48.914;12.566;2022-07-10T13:48:14;21.20;82.00
37410;DHT22;23275;48.914;12.566;2022-07-10T13:50:41;21.10;81.40
37410;DHT22;23275;48.914;12.566;2022-07-10T13:53:07;21.10;80.90
37410;DHT22;23275;48.914;12.566;2022-07-10T13:55:34;21.10;82.30
37410;DHT22;23275;48.914;12.566;2022-07-10T13:57:59;21.20;81.40
37410;DHT22;23275;48.914;12.566;2022-07-10T14:00:25;21.20;81.10
37410;DHT22;23275;48.914;12.566;2022-07-10T14:02:51;21.20;84.00
37410;DHT22;23275;48.914;12.566;2022-07-10T14:05:16;21.30;79.60
37410;DHT22;23275;48.914;12.566;2022-07-10T14:07:42;21.10;79.20
37410;DHT22;23275;48.914;12.566;2022-07-10T14:10:08;21.00;81.30
37410;DHT22;23275;48.914;12.566;2022-07-10T14:12:34;20.90;82.40
37410;DHT22;23275;48.914;12.566;2022-07-10T14:14:59;20.80;81.10
37410;DHT22;23275;48.914;12.566;2022-07-10T14:17:26;20.60;81.60
37410;DHT22;23275;48.914;12.566;2022-07-10T14:19:53;20.60;80.90
37410;DHT22;23275;48.914;12.566;2022-07-10T14:22:19;20.70;80.30
37410;DHT22;23275;48.914;12.566;2022-07-10T14:24:44;20.80;81.90
37410;DHT22;23275;48.914;12.566;2022-07-10T14:27:10;20.80;80.70
37410;DHT22;23275;48.914;12.566;2022-07-10T14:29:36;20.70;81.30
37410;DHT22;23275;48.914;12.566;2022-07-10T14:32:02;20.60;80.90
37410;DHT22;23275;48.914;12.566;2022-07-10T14:34:28;20.40;82.20
37410;DHT22;23275;48.914;12.566;2022-07-10T14:36:54;20.30;82.90
37410;DHT22;23275;48.914;12.566;2022-07-10T14:39:20;20.20;82.80
37410;DHT22;23275;48.914;12.566;2022-07-10T14:41:46;20.10;83.40
37410;DHT22;23275;48.914;12.566;2022-07-10T14:44:11;20.10;82.90
37410;DHT22;23275;48.914;12.566;2022-07-10T14:46:37;20.10;83.50
37410;DHT22;23275;48.914;12.566;2022-07-10T14:49:03;20.00;82.70
37410;DHT22;23275;48.914;12.566;2022-07-10T14:51:28;20.00;82.50
37410;DHT22;23275;48.914;12.566;2022-07-10T14:53:54;19.80;83.20
37410;DHT22;23275;48.914;12.566;2022-07-10T14:56:22;19.80;83.00
37410;DHT22;23275;48.914;12.566;2022-07-10T14:58:48;19.60;83.60
37410;DHT22;23275;48.914;12.566;2022-07-10T15:01:14;19.60;84.20
37410;DHT22;23275;48.914;12.566;2022-07-10T15:03:43;19.60;84.90
37410;DHT22;23275;48.914;12.566;2022-07-10T15:06:09;19.50;83.80
37410;DHT22;23275;48.914;12.566;2022-07-10T15:08:35;19.40;84.40
37410;DHT22;23275;48.914;12.566;2022-07-10T15:11:01;19.40;85.70
37410;DHT22;23275;48.914;12.566;2022-07-10T15:13:28;19.30;85.70
37410;DHT22;23275;48.914;12.566;2022-07-10T15:15:54;19.30;85.40
37410;DHT22;23275;48.914;12.566;2022-07-10T15:18:20;19.30;85.30
37410;DHT22;23275;48.914;12.566;2022-07-10T15:20:46;19.20;87.00
37410;DHT22;23275;48.914;12.566;2022-07-10T15:23:12;19.20;84.80
37410;DHT22;23275;48.914;12.566;2022-07-10T15:25:41;19.30;87.80
37410;DHT22;23275;48.914;12.566;2022-07-10T15:28:10;19.10;88.30
37410;DHT22;23275;48.914;12.566;2022-07-10T15:30:37;19.10;89.40
37410;DHT22;23275;48.914;12.566;2022-07-10T15:33:03;19.10;90.00
37410;DHT22;23275;48.914;12.566;2022-07-10T15:35:30;19.10;88.60
37410;DHT22;23275;48.914;12.566;2022-07-10T15:37:56;19.10;88.90